Time;durP1;ratioP1;P1;durP2;ratioP2;P2;SDS_P1;SDS_P2;PMS_P1;PMS_P2;Temp;Humidity;BMP_temperature;BMP_pressure;BME280_temperature;BME280_humidity;BME280_pressure;Samples;Min_cycle;Max_cycle;Signal;HPM_P1;HPM_P2
2023/07/07 00:01:07;;;;;;;4.87;3.80;;;15.90;92.00;;;;;;5217680;28;20183;-43
2023/07/07 00:03:38;;;;;;;3.87;3.60;;;15.90;92.30;;;;;;5216665;28;20203;-42
2023/07/07 00:06:08;;;;;;;4.90;3.90;;;15.90;92.30;;;;;;5235471;28;20489;-44
2023/07/07 00:08:39;;;;;;;6.57;5.40;;;15.80;92.00;;;;;;5240626;28;20174;-43
2023/07/07 00:11:10;;;;;;;6.70;4.03;;;15.80;91.90;;;;;;5219294;28;20186;-43
2023/07/07 00:13:40;;;;;;;4.27;3.60;;;15.80;92.70;;;;;;5239023;28;20639;-43
2023/07/07 00:16:11;;;;;;;4.07;3.60;;;15.80;93.20;;;;;;5238828;28;20178;-43
2023/07/07 00:18:42;;;;;;;5.03;4.00;;;15.80;93.40;;;;;;5219908;28;20215;-43
2023/07/07 00:21:12;;;;;;;6.63;4.80;;;15.80;93.60;;;;;;5222134;28;20221;-44
2023/07/07 00:23:43;;;;;;;6.27;4.30;;;15.80;94.60;;;;;;5241066;28;20267;-43
2023/07/07 00:26:14;;;;;;;7.33;5.20;;;15.70;95.30;;;;;;5223798;28;20699;-43
2023/07/07 00:28:45;;;;;;;5.60;5.00;;;15.70;95.40;;;;;;5215923;28;20247;-43
2023/07/07 00:31:17;;;;;;;7.83;5.43;;;15.60;95.60;;;;;;5217913;28;20179;-43
2023/07/07 00:33:48;;;;;;;7.40;5.33;;;15.50;95.90;;;;;;5238057;28;20210;-43
2023/07/07 00:36:19;;;;;;;7.63;5.43;;;15.50;95.90;;;;;;5219215;28;20483;-42
2023/07/07 00:38:52;;;;;;;6.20;5.60;;;15.50;96.60;;;;;;5241445;28;21589;-42
2023/07/07 00:41:22;;;;;;;6.67;5.60;;;15.50;96.80;;;;;;5241624;28;20183;-42
2023/07/07 00:44:19;;;;;;;10.27;5.47;;;15.40;96.80;;;;;;5240691;28;20812;-44
2023/07/07 00:46:50;;;;;;;11.43;6.07;;;15.40;97.10;;;;;;5220942;28;20608;-43
2023/07/07 00:49:23;;;;;;;8.60;5.53;;;15.40;97.90;;;;;;5224003;28;20447;-43
2023/07/07 00:51:59;;;;;;;6.40;4.57;;;15.40;99.20;;;;;;5240336;28;20258;-44
2023/07/07 00:54:33;;;;;;;10.47;5.83;;;15.30;99.90;;;;;;5221155;28;20436;-42
2023/07/07 00:57:06;;;;;;;5.63;4.53;;;15.30;99.90;;;;;;5222176;28;20460;-43
2023/07/07 00:59:40;;;;;;;6.30;4.73;;;15.30;99.90;;;;;;5223631;28;20440;-44
2023/07/07 01:02:25;;;;;;;4.80;4.40;;;15.30;99.90;;;;;;5216235;28;20454;-43
2023/07/07 01:04:59;;;;;;;6.53;4.00;;;15.30;99.90;;;;;;5207890;28;21017;-44
2023/07/07 01:07:39;;;;;;;5.33;3.60;;;15.30;99.90;;;;;;5237180;28;20443;-44
2023/07/07 01:10:11;;;;;;;4.57;4.13;;;15.30;99.80;;;;;;5234566;28;20432;-43
2023/07/07 01:12:42;;;;;;;7.30;4.17;;;15.30;99.60;;;;;;5238719;28;20433;-43
2023/07/07 01:15:13;;;;;;;5.07;4.27;;;15.40;99.80;;;;;;5239101;28;20441;-42
2023/07/07 01:18:02;;;;;;;4.00;3.70;;;15.30;99.90;;;;;;5218609;28;20206;-42
2023/07/07 01:20:41;;;;;;;7.00;4.23;;;15.30;99.90;;;;;;5231255;28;20273;-43
2023/07/07 01:23:36;;;;;;;7.70;4.43;;;15.30;99.90;;;;;;5216582;28;20460;-43
2023/07/07 01:26:41;;;;;;;4.63;4.23;;;15.20;99.90;;;;;;5237023;28;20780;-43
2023/07/07 01:29:38;;;;;;;7.97;4.60;;;15.20;99.90;;;;;;5227601;28;20424;-43
2023/07/07 01:32:17;;;;;;;6.07;4.40;;;15.10;99.90;;;;;;5228156;28;20433;-43
2023/07/07 01:34:48;;;;;;;4.30;3.90;;;15.00;99.90;;;;;;5241503;28;20436;-44
2023/07/07 01:37:19;;;;;;;11.90;4.70;;;15.00;99.90;;;;;;5239588;28;20490;-44
2023/07/07 01:39:51;;;;;;;4.40;4.20;;;15.00;99.90;;;;;;5238244;28;20193;-44
2023/07/07 01:42:31;;;;;;;5.60;3.87;;;15.00;99.90;;;;;;5239516;28;20243;-44
2023/07/07 01:45:18;;;;;;;5.37;4.77;;;15.00;99.90;;;;;;5235656;28;20483;-44
2023/07/07 01:47:57;;;;;;;7.73;4.80;;;15.00;99.90;;;;;;5239706;28;20861;-44
2023/07/07 01:50:32;;;;;;;4.63;4.33;;;14.90;99.90;;;;;;5242019;28;20432;-43
2023/07/07 01:53:13;;;;;;;6.43;5.27;;;14.90;99.90;;;;;;5228262;28;20531;-44
2023/07/07 01:55:49;;;;;;;4.40;3.90;;;14.90;99.90;;;;;;5245828;28;20523;-43
2023/07/07 01:58:21;;;;;;;5.50;4.90;;;14.90;99.90;;;;;;5205873;28;20461;-44
2023/07/07 02:00:55;;;;;;;4.60;4.20;;;14.90;99.90;;;;;;5247899;28;20459;-43
2023/07/07 02:03:28;;;;;;;10.17;4.30;;;14.90;99.90;;;;;;5240758;28;20821;-43
2023/07/07 02:05:59;;;;;;;5.27;4.87;;;14.80;99.90;;;;;;5232771;28;20441;-44
2023/07/07 02:08:29;;;;;;;6.77;4.47;;;14.80;99.90;;;;;;5226886;28;20518;-44
2023/07/07 02:11:00;;;;;;;9.70;4.40;;;14.80;99.90;;;;;;5228789;28;20224;-44
2023/07/07 02:13:33;;;;;;;4.77;4.43;;;14.80;99.90;;;;;;5249582;28;20178;-44
2023/07/07 02:16:07;;;;;;;4.80;4.20;;;14.80;99.90;;;;;;5247161;28;20182;-44
2023/07/07 02:18:37;;;;;;;6.03;4.63;;;14.70;99.90;;;;;;5243370;28;20813;-45
2023/07/07 02:21:08;;;;;;;4.30;4.00;;;14.70;99.90;;;;;;5246041;28;20440;-45
2023/07/07 02:23:39;;;;;;;7.00;5.30;;;14.70;99.90;;;;;;5223524;28;20398;-44
2023/07/07 02:26:13;;;;;;;4.80;4.40;;;14.70;99.90;;;;;;5226116;28;20191;-45
2023/07/07 02:28:46;;;;;;;6.40;4.43;;;14.60;99.90;;;;;;5239963;28;20174;-44
2023/07/07 02:31:17;;;;;;;4.43;4.03;;;14.60;99.90;;;;;;5242521;28;20437;-44
2023/07/07 02:33:48;;;;;;;7.10;4.47;;;14.60;99.90;;;;;;5222755;28;20428;-44
2023/07/07 02:36:18;;;;;;;7.60;4.50;;;14.60;99.90;;;;;;5244726;28;20432;-43
2023/07/07 02:38:49;;;;;;;5.60;4.10;;;14.60;99.90;;;;;;5225526;28;20265;-45
2023/07/07 02:41:21;;;;;;;4.00;3.80;;;14.60;99.90;;;;;;5230974;28;20195;-44
2023/07/07 02:43:52;;;;;;;4.23;3.73;;;14.60;99.90;;;;;;5244023;28;20483;-43
2023/07/07 02:46:22;;;;;;;4.33;3.90;;;14.60;99.90;;;;;;5228593;28;20508;-44
2023/07/07 02:48:53;;;;;;;4.33;3.97;;;14.60;99.90;;;;;;5244750;28;20184;-44
2023/07/07 02:51:24;;;;;;;4.80;3.83;;;14.60;99.90;;;;;;5242731;28;20174;-44
2023/07/07 02:53:56;;;;;;;4.73;3.40;;;14.60;99.90;;;;;;5249340;28;20182;-43
2023/07/07 02:56:27;;;;;;;5.50;4.27;;;14.60;99.90;;;;;;5233909;28;20221;-44
2023/07/07 02:58:57;;;;;;;4.40;4.00;;;14.60;99.90;;;;;;5218148;28;20461;-43
2023/07/07 03:01:28;;;;;;;9.50;4.33;;;14.60;99.90;;;;;;5239066;28;20638;-43
2023/07/07 03:03:59;;;;;;;6.80;4.23;;;14.60;99.90;;;;;;5221064;28;20209;-44
2023/07/07 03:06:30;;;;;;;11.17;4.20;;;14.60;99.90;;;;;;5241597;28;20497;-44
2023/07/07 03:09:00;;;;;;;4.13;3.70;;;14.60;99.90;;;;;;5225357;28;20726;-43
2023/07/07 03:11:31;;;;;;;8.93;3.30;;;14.60;99.90;;;;;;5238813;28;20190;-43
2023/07/07 03:14:02;;;;;;;4.73;3.40;;;14.60;99.90;;;;;;5241546;28;20187;-43
2023/07/07 03:16:33;;;;;;;4.37;3.90;;;14.60;99.90;;;;;;5223493;28;20540;-43
2023/07/07 03:19:05;;;;;;;4.30;3.83;;;14.60;99.90;;;;;;5233951;28;20187;-43
2023/07/07 03:21:36;;;;;;;6.97;4.73;;;14.70;99.90;;;;;;5220949;28;20182;-44
2023/07/07 03:24:07;;;;;;;4.37;3.93;;;14.70;99.90;;;;;;5225687;28;20546;-43
2023/07/07 03:26:38;;;;;;;5.13;4.00;;;14.70;99.90;;;;;;5246626;28;20567;-44
2023/07/07 03:29:09;;;;;;;5.53;4.90;;;14.80;99.90;;;;;;5225372;28;20433;-43
2023/07/07 03:31:40;;;;;;;6.73;3.83;;;14.80;99.90;;;;;;5233043;28;20171;-43
2023/07/07 03:34:10;;;;;;;4.67;4.23;;;14.80;99.90;;;;;;5238611;28;20443;-44
2023/07/07 03:36:41;;;;;;;4.33;4.03;;;14.90;99.90;;;;;;5221288;28;20198;-44
2023/07/07 03:39:12;;;;;;;10.03;4.40;;;14.90;99.90;;;;;;5240197;28;20182;-44
2023/07/07 03:41:42;;;;;;;6.10;4.30;;;15.00;99.90;;;;;;5200043;28;20615;-44
2023/07/07 03:44:15;;;;;;;4.70;4.17;;;15.00;99.90;;;;;;5244267;28;20561;-44
2023/07/07 03:46:46;;;;;;;6.00;4.33;;;15.00;99.90;;;;;;5227132;28;20331;-43
2023/07/07 03:49:16;;;;;;;4.00;3.73;;;15.10;99.90;;;;;;5238799;28;20469;-43
2023/07/07 03:51:47;;;;;;;4.20;3.83;;;15.10;99.90;;;;;;5242261;28;20179;-44
2023/07/07 03:54:18;;;;;;;3.80;3.40;;;15.10;99.90;;;;;;5245936;28;20190;-44
2023/07/07 03:56:49;;;;;;;4.90;4.40;;;15.20;99.90;;;;;;5230311;28;20288;-44
2023/07/07 03:59:20;;;;;;;10.43;4.47;;;15.20;99.90;;;;;;5240568;28;21864;-43
2023/07/07 04:01:51;;;;;;;4.00;3.70;;;15.30;99.90;;;;;;5241518;28;20192;-44
2023/07/07 04:04:22;;;;;;;9.00;3.70;;;15.40;99.90;;;;;;5240660;28;20884;-43
2023/07/07 04:06:56;;;;;;;3.77;3.47;;;15.40;99.90;;;;;;5237855;28;20214;-43
2023/07/07 04:09:27;;;;;;;5.10;4.60;;;15.50;99.90;;;;;;5225144;28;20245;-43
2023/07/07 04:11:58;;;;;;;3.63;3.33;;;15.60;99.90;;;;;;5241569;28;20528;-43
2023/07/07 04:14:29;;;;;;;5.07;3.80;;;15.70;99.90;;;;;;5224083;28;20193;-44
2023/07/07 04:16:59;;;;;;;6.00;4.10;;;15.80;99.90;;;;;;5217166;28;20211;-43
2023/07/07 04:19:30;;;;;;;12.30;4.30;;;15.90;99.90;;;;;;5235044;28;20194;-43
2023/07/07 04:22:01;;;;;;;8.20;3.83;;;16.00;99.90;;;;;;5241320;28;20233;-43
2023/07/07 04:24:31;;;;;;;8.67;4.10;;;16.20;99.90;;;;;;5238709;28;20202;-43
2023/07/07 04:27:02;;;;;;;4.27;3.70;;;16.40;99.90;;;;;;5239040;28;20205;-43
2023/07/07 04:29:33;;;;;;;4.33;3.93;;;16.60;99.90;;;;;;5224167;28;20658;-43
2023/07/07 04:32:05;;;;;;;4.87;3.87;;;16.80;99.90;;;;;;5217211;28;20179;-43
2023/07/07 04:34:38;;;;;;;3.57;3.27;;;17.10;99.50;;;;;;5218790;28;20544;-44
2023/07/07 04:37:09;;;;;;;7.00;4.63;;;17.30;98.40;;;;;;5237432;28;20463;-43
2023/07/07 04:39:39;;;;;;;4.30;3.70;;;17.60;97.10;;;;;;5219962;28;20441;-43
2023/07/07 04:42:10;;;;;;;6.30;3.60;;;17.90;96.10;;;;;;5238092;28;20291;-43
2023/07/07 04:44:41;;;;;;;4.00;3.70;;;18.00;95.50;;;;;;5205129;28;20531;-44
2023/07/07 04:47:11;;;;;;;3.47;3.17;;;18.40;94.90;;;;;;5239400;28;20214;-42
2023/07/07 04:49:42;;;;;;;3.87;3.47;;;18.80;93.30;;;;;;5233595;28;20911;-43
2023/07/07 04:52:13;;;;;;;6.83;4.40;;;19.10;92.10;;;;;;5236813;28;20186;-42
2023/07/07 04:54:44;;;;;;;7.47;3.50;;;19.60;90.70;;;;;;5227397;28;20186;-43
2023/07/07 04:57:15;;;;;;;4.83;4.00;;;20.30;87.20;;;;;;5235596;28;20198;-43
2023/07/07 04:59:46;;;;;;;4.40;3.50;;;21.40;81.70;;;;;;5238314;28;20186;-44
2023/07/07 05:02:22;;;;;;;8.63;3.40;;;22.40;74.30;;;;;;5230300;28;20463;-44
2023/07/07 05:04:53;;;;;;;5.90;4.33;;;22.80;67.70;;;;;;5235553;28;20820;-44
2023/07/07 05:07:25;;;;;;;3.80;2.77;;;22.90;66.50;;;;;;5231576;28;20491;-43
2023/07/07 05:09:56;;;;;;;2.27;2.17;;;23.00;63.60;;;;;;5228338;28;20218;-44
2023/07/07 05:12:27;;;;;;;3.17;2.87;;;23.20;61.00;;;;;;5219815;28;20511;-43
2023/07/07 05:14:58;;;;;;;2.97;2.10;;;23.50;60.10;;;;;;5234635;28;20516;-43
2023/07/07 05:17:29;;;;;;;2.90;2.70;;;23.60;60.50;;;;;;5241097;28;20889;-43
2023/07/07 05:20:00;;;;;;;4.93;2.27;;;24.10;58.50;;;;;;5213124;28;20524;-45
2023/07/07 05:22:30;;;;;;;2.83;2.37;;;24.60;56.60;;;;;;5236014;28;20313;-45
2023/07/07 05:25:01;;;;;;;3.77;2.90;;;25.00;54.10;;;;;;5229724;28;21864;-45
2023/07/07 05:27:32;;;;;;;4.20;2.70;;;25.30;53.70;;;;;;5235727;28;20198;-44
2023/07/07 05:30:03;;;;;;;2.50;2.23;;;25.90;50.80;;;;;;5238680;28;20191;-44
2023/07/07 05:32:34;;;;;;;3.47;2.80;;;26.40;48.60;;;;;;5233287;28;20186;-46
2023/07/07 05:35:05;;;;;;;2.00;1.90;;;27.60;46.60;;;;;;5219297;28;20441;-43
2023/07/07 05:37:35;;;;;;;2.77;2.53;;;28.90;42.50;;;;;;5217507;28;22138;-43
2023/07/07 05:40:07;;;;;;;2.40;2.30;;;30.00;39.60;;;;;;5235157;28;20443;-44
2023/07/07 05:42:38;;;;;;;2.10;1.70;;;31.00;37.00;;;;;;5217840;28;20192;-43
2023/07/07 05:45:09;;;;;;;1.90;1.80;;;32.10;35.60;;;;;;5230163;28;20972;-44
2023/07/07 05:47:39;;;;;;;2.57;1.97;;;33.50;33.60;;;;;;5221731;28;20225;-44
2023/07/07 05:50:10;;;;;;;2.30;2.00;;;34.90;31.30;;;;;;5212012;28;20529;-45
2023/07/07 05:52:41;;;;;;;6.53;2.30;;;36.20;29.30;;;;;;5214003;28;20281;-44
2023/07/07 05:55:28;;;;;;;3.13;1.80;;;36.70;27.60;;;;;;5231621;28;20276;-44
2023/07/07 05:58:00;;;;;;;1.67;1.40;;;36.90;27.70;;;;;;5229036;28;21450;-47
2023/07/07 06:00:33;;;;;;;2.55;1.55;;;37.70;27.10;;;;;;5211238;28;20190;-46
2023/07/07 06:03:04;;;;;;;1.30;1.20;;;38.50;26.20;;;;;;5231297;28;20212;-45
2023/07/07 06:05:35;;;;;;;1.50;1.40;;;39.80;25.20;;;;;;5202731;28;20178;-44
2023/07/07 06:08:05;;;;;;;1.73;1.67;;;40.10;24.50;;;;;;5213868;28;20244;-43
2023/07/07 06:10:37;;;;;;;2.55;2.17;;;40.70;23.70;;;;;;5211886;28;20189;-46
2023/07/07 06:13:07;;;;;;;6.25;1.98;;;41.00;23.80;;;;;;5233466;28;20268;-43
2023/07/07 06:15:38;;;;;;;3.20;2.30;;;39.30;23.70;;;;;;5222191;28;20272;-44
2023/07/07 06:18:09;;;;;;;2.72;1.77;;;38.70;23.70;;;;;;5232635;28;20217;-44
2023/07/07 06:20:40;;;;;;;2.70;1.48;;;38.40;23.90;;;;;;5219602;28;20542;-43
2023/07/07 06:23:10;;;;;;;3.42;1.55;;;38.90;24.70;;;;;;5219767;28;20210;-44
2023/07/07 06:25:41;;;;;;;1.48;1.48;;;39.90;23.50;;;;;;5239413;28;20174;-44
2023/07/07 06:28:12;;;;;;;1.85;1.75;;;40.40;23.30;;;;;;5238302;28;20208;-44
2023/07/07 06:30:46;;;;;;;3.30;2.15;;;40.80;22.70;;;;;;5217608;28;20650;-45
2023/07/07 06:33:21;;;;;;;11.07;2.13;;;41.20;22.50;;;;;;5233483;28;20277;-44
2023/07/07 06:35:52;;;;;;;1.95;1.85;;;41.50;22.10;;;;;;5214614;28;20221;-43
2023/07/07 06:38:23;;;;;;;2.10;2.00;;;41.40;22.40;;;;;;5237174;28;20233;-46
2023/07/07 06:40:54;;;;;;;1.98;1.85;;;41.60;22.40;;;;;;5219778;28;20189;-47
2023/07/07 06:43:25;;;;;;;2.05;1.90;;;42.20;21.90;;;;;;5232979;28;20603;-47
2023/07/07 06:45:56;;;;;;;3.20;1.38;;;42.50;21.10;;;;;;5220107;28;20541;-46
2023/07/07 06:48:27;;;;;;;2.17;2.08;;;42.00;21.40;;;;;;5223900;28;20530;-46
2023/07/07 06:50:57;;;;;;;5.90;2.40;;;41.80;21.50;;;;;;5243913;28;20178;-44
2023/07/07 06:53:28;;;;;;;2.90;1.70;;;41.70;21.90;;;;;;5224216;28;20417;-44
2023/07/07 06:55:59;;;;;;;1.60;1.50;;;41.90;21.70;;;;;;5222469;28;20193;-44
2023/07/07 06:58:30;;;;;;;1.80;1.70;;;42.10;21.20;;;;;;5240574;28;20220;-45
2023/07/07 07:01:01;;;;;;;1.77;1.60;;;41.20;21.40;;;;;;5223049;28;20182;-44
2023/07/07 07:03:31;;;;;;;2.80;1.85;;;41.40;21.30;;;;;;5239727;28;20210;-45
2023/07/07 07:06:02;;;;;;;5.45;1.92;;;41.80;21.40;;;;;;5225321;28;20186;-45
2023/07/07 07:08:33;;;;;;;1.42;1.40;;;41.90;21.40;;;;;;5236956;28;20174;-44
2023/07/07 07:11:06;;;;;;;2.80;1.88;;;42.20;21.10;;;;;;5223278;28;20204;-44
2023/07/07 07:13:36;;;;;;;2.33;2.22;;;42.70;21.00;;;;;;5220608;28;20178;-45
2023/07/07 07:16:07;;;;;;;8.43;2.25;;;42.80;20.90;;;;;;5233629;28;20186;-45
2023/07/07 07:18:38;;;;;;;7.97;2.90;;;41.70;20.80;;;;;;5222185;28;20277;-45
2023/07/07 07:21:08;;;;;;;3.65;2.28;;;41.60;21.60;;;;;;5241865;28;20216;-45
2023/07/07 07:23:39;;;;;;;8.68;2.30;;;40.30;22.10;;;;;;5238736;28;20224;-44
2023/07/07 07:26:10;;;;;;;1.50;1.40;;;40.60;22.30;;;;;;5224435;28;20205;-44
2023/07/07 07:28:41;;;;;;;2.33;2.00;;;41.10;21.70;;;;;;5221486;28;20224;-45
2023/07/07 07:31:12;;;;;;;4.70;2.38;;;41.90;21.30;;;;;;5226922;28;20185;-44
2023/07/07 07:33:43;;;;;;;2.45;1.80;;;41.60;21.20;;;;;;5241850;28;20238;-44
2023/07/07 07:36:14;;;;;;;2.65;2.45;;;41.50;21.60;;;;;;5243506;28;20266;-45
2023/07/07 07:38:44;;;;;;;5.45;1.90;;;42.20;21.40;;;;;;5240300;28;20181;-44
2023/07/07 07:41:15;;;;;;;1.90;1.50;;;42.80;20.70;;;;;;5238668;28;20584;-44
2023/07/07 07:43:46;;;;;;;1.35;1.35;;;43.00;20.40;;;;;;5239015;28;20201;-46
2023/07/07 07:46:16;;;;;;;1.73;1.63;;;43.20;19.90;;;;;;5227866;28;20188;-46
2023/07/07 07:48:47;;;;;;;2.17;2.08;;;43.00;19.90;;;;;;5236711;28;20199;-44
2023/07/07 07:51:18;;;;;;;1.63;1.40;;;42.70;20.20;;;;;;5203695;28;20186;-44
2023/07/07 07:53:49;;;;;;;10.52;1.50;;;40.70;20.50;;;;;;5224621;28;20186;-43
2023/07/07 07:56:20;;;;;;;6.80;2.20;;;40.30;21.10;;;;;;5239378;28;20247;-44
2023/07/07 07:58:51;;;;;;;2.72;1.48;;;40.40;21.20;;;;;;5240497;28;20599;-45
2023/07/07 08:01:21;;;;;;;3.60;1.80;;;40.00;21.20;;;;;;5225098;28;20186;-45
2023/07/07 08:03:52;;;;;;;3.53;1.58;;;39.70;21.10;;;;;;5238417;28;20210;-44
2023/07/07 08:06:23;;;;;;;3.25;1.35;;;40.00;21.00;;;;;;5210312;28;20206;-44
2023/07/07 08:08:54;;;;;;;1.00;1.00;;;40.20;21.20;;;;;;5234783;28;20224;-45
2023/07/07 08:11:42;;;;;;;5.38;1.80;;;40.60;20.70;;;;;;5220810;28;20181;-46
2023/07/07 08:14:22;;;;;;;2.08;1.27;;;41.50;20.30;;;;;;5231583;28;20288;-45
2023/07/07 08:16:53;;;;;;;2.80;1.17;;;41.10;20.40;;;;;;5236801;28;20209;-47
2023/07/07 08:19:24;;;;;;;1.88;1.60;;;41.30;20.40;;;;;;5235603;28;20570;-45
2023/07/07 08:21:57;;;;;;;1.65;1.58;;;41.70;20.40;;;;;;5242893;28;20324;-44
2023/07/07 08:24:28;;;;;;;3.33;1.70;;;42.10;20.30;;;;;;5233927;28;20217;-45
2023/07/07 08:26:58;;;;;;;1.75;1.60;;;42.40;19.80;;;;;;5222945;28;20209;-45
2023/07/07 08:29:29;;;;;;;1.50;1.42;;;42.10;19.80;;;;;;5237377;28;20194;-44
2023/07/07 08:32:00;;;;;;;1.83;1.33;;;42.20;19.90;;;;;;5220466;28;20185;-44
2023/07/07 08:34:30;;;;;;;2.08;1.58;;;42.70;19.50;;;;;;5230345;28;20181;-46
2023/07/07 08:37:01;;;;;;;1.63;1.33;;;42.10;19.70;;;;;;5240773;28;20222;-43
2023/07/07 08:39:33;;;;;;;2.35;1.70;;;41.40;19.70;;;;;;5238037;28;20659;-45
2023/07/07 08:42:16;;;;;;;1.30;1.30;;;41.00;20.50;;;;;;5238745;28;20192;-45
2023/07/07 08:44:47;;;;;;;19.60;1.92;;;39.20;21.10;;;;;;5226813;28;20206;-44
2023/07/07 08:47:18;;;;;;;1.48;1.48;;;37.10;23.30;;;;;;5201897;28;20297;-45
2023/07/07 08:50:15;;;;;;;6.60;1.75;;;36.20;23.50;;;;;;5240544;28;20268;-45
2023/07/07 08:53:01;;;;;;;1.70;1.60;;;35.60;23.80;;;;;;5217936;28;20650;-45
2023/07/07 08:55:38;;;;;;;1.70;1.35;;;34.80;24.30;;;;;;5220878;28;20191;-44
2023/07/07 08:58:32;;;;;;;1.33;1.33;;;33.50;24.50;;;;;;5237717;28;20580;-45
2023/07/07 09:01:11;;;;;;;7.13;1.00;;;32.10;25.70;;;;;;5235752;28;20620;-45
2023/07/07 09:04:05;;;;;;;1.40;1.30;;;31.00;26.60;;;;;;5231066;28;20206;-44
2023/07/07 09:06:51;;;;;;;1.70;1.40;;;30.10;27.20;;;;;;5237083;28;20276;-45
2023/07/07 09:09:50;;;;;;;3.23;1.53;;;29.40;28.00;;;;;;5219335;28;20436;-46
2023/07/07 09:12:20;;;;;;;1.40;1.30;;;28.60;28.60;;;;;;5216968;28;20436;-45
2023/07/07 09:14:53;;;;;;;1.00;1.00;;;28.30;29.70;;;;;;5240689;28;20585;-46
2023/07/07 09:17:28;;;;;;;3.13;1.20;;;28.40;29.80;;;;;;5225040;28;20550;-45
2023/07/07 09:20:04;;;;;;;4.17;1.70;;;28.40;29.80;;;;;;5238560;28;20435;-44
2023/07/07 09:22:37;;;;;;;6.53;2.57;;;28.50;29.80;;;;;;5217573;28;20459;-43
2023/07/07 09:25:24;;;;;;;1.90;1.80;;;28.50;30.00;;;;;;5235483;28;20429;-43
2023/07/07 09:28:04;;;;;;;1.93;1.50;;;28.60;30.40;;;;;;5237182;28;20511;-47
2023/07/07 09:30:50;;;;;;;1.63;1.00;;;28.40;30.10;;;;;;5206362;28;20474;-44
2023/07/07 09:33:23;;;;;;;2.57;1.30;;;28.20;30.10;;;;;;5227131;28;20482;-43
2023/07/07 09:36:11;;;;;;;3.00;2.80;;;28.20;30.70;;;;;;5225398;28;20433;-43
2023/07/07 09:39:03;;;;;;;2.30;2.10;;;28.00;30.50;;;;;;5237817;28;20492;-44
2023/07/07 09:41:59;;;;;;;1.10;1.10;;;28.00;31.10;;;;;;5240592;28;20506;-44
2023/07/07 09:44:47;;;;;;;1.30;1.23;;;28.00;30.60;;;;;;5244095;28;20464;-43
2023/07/07 09:47:38;;;;;;;2.10;1.43;;;28.00;30.90;;;;;;5216598;28;20457;-47
2023/07/07 09:50:32;;;;;;;1.03;1.03;;;27.80;30.20;;;;;;5239078;28;20467;-44
2023/07/07 09:53:25;;;;;;;1.17;1.07;;;27.70;31.20;;;;;;5232607;28;20470;-43
2023/07/07 09:55:57;;;;;;;2.60;1.40;;;27.70;30.80;;;;;;5242800;28;20964;-46
2023/07/07 09:58:40;;;;;;;1.53;1.20;;;27.40;31.10;;;;;;5234502;28;20492;-45
2023/07/07 10:01:11;;;;;;;1.63;1.53;;;27.10;30.90;;;;;;5228965;28;20601;-44
2023/07/07 10:03:47;;;;;;;3.27;2.57;;;26.90;30.90;;;;;;5218056;28;20881;-44
2023/07/07 10:06:37;;;;;;;1.43;1.33;;;26.70;32.10;;;;;;5212417;28;20421;-43
2023/07/07 10:09:12;;;;;;;1.40;1.17;;;26.60;31.60;;;;;;5236256;28;20573;-43
2023/07/07 10:11:45;;;;;;;1.07;0.90;;;26.60;31.30;;;;;;5235030;28;20436;-44
2023/07/07 10:14:17;;;;;;;8.77;1.60;;;26.60;30.70;;;;;;5239281;28;20433;-43
2023/07/07 10:17:09;;;;;;;3.80;1.90;;;26.70;31.60;;;;;;5226216;28;20472;-43
2023/07/07 10:19:40;;;;;;;1.90;1.10;;;26.80;31.50;;;;;;5246995;28;20704;-43
2023/07/07 10:22:14;;;;;;;1.70;1.60;;;26.80;32.00;;;;;;5248128;28;20429;-44
2023/07/07 10:24:45;;;;;;;1.60;1.60;;;26.90;32.20;;;;;;5224393;28;20467;-43
2023/07/07 10:27:19;;;;;;;2.53;1.80;;;27.00;32.30;;;;;;5223687;28;20444;-44
2023/07/07 10:29:50;;;;;;;0.90;0.90;;;27.00;31.40;;;;;;5238072;28;20433;-44
2023/07/07 10:32:23;;;;;;;1.33;1.23;;;27.00;31.70;;;;;;5237222;28;20575;-43
2023/07/07 10:34:58;;;;;;;1.33;1.23;;;26.80;31.20;;;;;;5239524;28;20718;-44
2023/07/07 10:37:33;;;;;;;1.47;1.37;;;26.60;32.30;;;;;;5237108;28;20462;-43
2023/07/07 10:40:05;;;;;;;4.43;1.30;;;26.60;32.30;;;;;;5219797;28;20428;-44
2023/07/07 10:42:36;;;;;;;1.27;1.17;;;26.40;32.10;;;;;;5223137;28;20841;-44
2023/07/07 10:45:07;;;;;;;4.50;4.00;;;26.30;32.40;;;;;;5236072;28;20440;-44
2023/07/07 10:47:38;;;;;;;1.50;1.40;;;26.30;32.60;;;;;;5220581;22;20313;-49
2023/07/07 10:50:17;;;;;;;1.07;1.07;;;26.30;32.50;;;;;;5199742;28;20524;-46
2023/07/07 10:52:55;;;;;;;2.70;2.13;;;26.60;32.00;;;;;;5203961;28;20225;-46
2023/07/07 10:55:50;;;;;;;4.63;2.07;;;26.60;32.10;;;;;;5203406;28;20433;-47
2023/07/07 10:58:50;;;;;;;3.30;1.20;;;26.60;32.90;;;;;;5207520;28;20455;-47
2023/07/07 11:01:41;;;;;;;1.10;1.10;;;26.90;32.30;;;;;;5175624;28;20433;-48
2023/07/07 11:04:33;;;;;;;1.60;1.50;;;26.90;31.40;;;;;;5197371;28;20470;-47
2023/07/07 11:07:22;;;;;;;1.00;1.00;;;27.00;30.80;;;;;;5195219;28;20940;-47
2023/07/07 11:10:00;;;;;;;1.10;1.10;;;27.00;31.00;;;;;;5204364;28;20652;-48
2023/07/07 11:13:10;;;;;;;3.30;1.60;;;27.10;30.80;;;;;;5206206;28;20804;-48
2023/07/07 11:16:12;;;;;;;6.40;1.77;;;26.90;30.50;;;;;;5144264;28;20487;-46
2023/07/07 11:19:04;;;;;;;6.57;2.43;;;26.80;32.40;;;;;;5125037;28;20468;-47
2023/07/07 11:21:50;;;;;;;1.50;1.50;;;26.60;32.00;;;;;;5198158;28;20435;-49
2023/07/07 11:24:40;;;;;;;1.87;1.23;;;26.60;32.10;;;;;;5209724;28;20470;-48
2023/07/07 11:27:48;;;;;;;1.80;1.40;;;26.60;32.00;;;;;;5188917;28;20550;-46
2023/07/07 11:30:38;;;;;;;6.43;1.33;;;26.30;31.60;;;;;;5185030;28;20428;-47
2023/07/07 11:33:31;;;;;;;1.30;1.30;;;26.20;32.30;;;;;;5203500;28;20442;-48
2023/07/07 11:36:05;;;;;;;1.07;1.07;;;26.30;33.40;;;;;;5177557;28;20549;-46
2023/07/07 11:39:10;;;;;;;2.40;1.60;;;26.50;32.90;;;;;;5207847;28;20465;-47
2023/07/07 11:41:50;;;;;;;8.63;3.60;;;26.60;32.80;;;;;;5202983;28;20732;-46
2023/07/07 11:44:58;;;;;;;1.87;1.57;;;26.70;31.90;;;;;;5208692;28;20465;-47
2023/07/07 11:48:16;;;;;;;3.53;1.20;;;26.40;32.10;;;;;;5208211;28;20609;-47
2023/07/07 11:50:52;;;;;;;1.57;1.47;;;26.20;32.50;;;;;;5136842;28;20458;-46
2023/07/07 11:54:13;;;;;;;2.03;1.50;;;26.20;33.30;;;;;;5208213;28;20981;-46
2023/07/07 11:56:50;;;;;;;1.33;1.33;;;26.40;33.70;;;;;;5121531;28;20498;-47
2023/07/07 11:59:38;;;;;;;1.50;1.50;;;26.60;33.30;;;;;;5125234;28;20476;-46
2023/07/07 12:02:24;;;;;;;1.10;1.10;;;26.70;32.40;;;;;;5181466;28;20997;-47
2023/07/07 12:04:57;;;;;;;1.33;1.30;;;26.50;32.40;;;;;;5202645;28;20473;-49
2023/07/07 12:07:39;;;;;;;1.10;1.10;;;26.60;33.40;;;;;;5192874;28;20504;-46
2023/07/07 12:10:18;;;;;;;1.83;1.70;;;26.80;33.30;;;;;;5205258;28;20474;-49
2023/07/07 12:12:59;;;;;;;4.33;1.67;;;27.00;32.40;;;;;;5206375;28;20505;-46
2023/07/07 12:15:41;;;;;;;2.20;1.60;;;27.10;32.40;;;;;;5205127;28;20445;-49
2023/07/07 12:18:40;;;;;;;7.30;1.60;;;27.30;32.40;;;;;;5201802;28;20458;-45
2023/07/07 12:21:16;;;;;;;1.70;1.60;;;27.20;32.00;;;;;;5198804;28;20518;-46
2023/07/07 12:24:25;;;;;;;1.13;1.13;;;26.90;31.60;;;;;;5203610;28;20560;-46
2023/07/07 12:27:19;;;;;;;2.20;1.70;;;26.80;32.60;;;;;;5206984;28;20466;-46
2023/07/07 12:29:52;;;;;;;2.13;1.93;;;26.90;32.30;;;;;;5205209;28;20939;-49
2023/07/07 12:32:22;;;;;;;2.67;2.47;;;27.10;32.50;;;;;;5190010;28;20938;-49
2023/07/07 12:35:07;;;;;;;4.43;2.40;;;27.10;31.70;;;;;;5204647;28;20434;-46
2023/07/07 12:37:38;;;;;;;3.33;1.40;;;27.10;31.30;;;;;;5206001;28;20207;-48
2023/07/07 12:40:08;;;;;;;1.30;1.20;;;27.10;31.20;;;;;;5207603;28;20432;-46
2023/07/07 12:42:42;;;;;;;3.23;1.67;;;27.10;31.10;;;;;;5204593;28;20179;-47
2023/07/07 12:45:33;;;;;;;4.43;3.37;;;27.00;32.10;;;;;;5204996;28;20218;-47
2023/07/07 12:48:14;;;;;;;3.20;1.40;;;26.80;31.60;;;;;;5204726;28;20896;-47
2023/07/07 12:50:47;;;;;;;1.40;1.30;;;26.80;32.20;;;;;;5204841;28;20431;-47
2023/07/07 12:53:27;;;;;;;4.20;2.00;;;26.80;32.40;;;;;;5186028;28;20449;-46
2023/07/07 12:56:02;;;;;;;1.23;1.23;;;26.70;32.60;;;;;;5199774;28;20441;-48
2023/07/07 12:58:52;;;;;;;1.33;1.33;;;26.80;32.10;;;;;;5186185;28;20514;-48
2023/07/07 13:01:39;;;;;;;1.30;1.30;;;26.70;32.00;;;;;;5202394;28;20466;-48
2023/07/07 13:04:13;;;;;;;1.90;1.43;;;26.60;31.70;;;;;;5199050;28;20543;-46
2023/07/07 13:07:03;;;;;;;1.70;1.60;;;26.40;31.90;;;;;;5202329;28;20445;-48
2023/07/07 13:09:47;;;;;;;1.03;1.03;;;26.40;32.60;;;;;;5186991;28;20431;-46
2023/07/07 13:12:37;;;;;;;1.30;1.20;;;26.40;32.40;;;;;;5202266;28;20526;-47
2023/07/07 13:15:16;;;;;;;2.37;1.30;;;26.40;32.40;;;;;;5197174;28;20458;-49
2023/07/07 13:17:49;;;;;;;1.50;1.17;;;26.50;32.80;;;;;;5204930;28;20477;-47
2023/07/07 13:20:22;;;;;;;2.53;1.40;;;26.50;32.70;;;;;;5202588;28;20461;-47
2023/07/07 13:23:01;;;;;;;1.30;1.20;;;26.50;33.00;;;;;;5190425;28;20441;-48
2023/07/07 13:25:34;;;;;;;1.80;1.70;;;26.60;33.20;;;;;;5203312;28;20434;-49
2023/07/07 13:28:11;;;;;;;1.20;1.10;;;26.60;32.80;;;;;;5204863;28;20488;-47
2023/07/07 13:30:50;;;;;;;0.87;0.87;;;26.80;33.20;;;;;;5205902;28;20437;-48